sensor_id;sensor_type;location;lat;lon;timestamp;temperature;humidity
12303;DHT22;6214;48.012;7.862;2022-07-21T00:00:24;23.40;99.90
12303;DHT22;6214;48.012;7.862;2022-07-21T00:02:52;23.30;99.90
12303;DHT22;6214;48.012;7.862;2022-07-21T00:05:20;23.40;99.90
12303;DHT22;6214;48.012;7.862;2022-07-21T00:07:47;23.50;99.90
12303;DHT22;6214;48.012;7.862;2022-07-21T00:10:15;23.50;99.90
12303;DHT22;6214;48.012;7.862;2022-07-21T00:12:42;23.40;99.90
12303;DHT22;6214;48.012;7.862;2022-07-21T00:15:10;23.40;99.90
12303;DHT22;6214;48.012;7.862;2022-07-21T00:17:37;23.40;99.90
12303;DHT22;6214;48.012;7.862;2022-07-21T00:20:06;23.30;99.90
12303;DHT22;6214;48.012;7.862;2022-07-21T00:22:34;23.30;99.90
12303;DHT22;6214;48.012;7.862;2022-07-21T00:25:03;23.30;99.90
12303;DHT22;6214;48.012;7.862;2022-07-21T00:27:29;23.40;99.90
12303;DHT22;6214;48.012;7.862;2022-07-21T00:29:57;23.50;99.90
12303;DHT22;6214;48.012;7.862;2022-07-21T00:32:24;23.50;99.90
12303;DHT22;6214;48.012;7.862;2022-07-21T00:34:51;23.70;99.90
12303;DHT22;6214;48.012;7.862;2022-07-21T00:37:18;23.70;99.90
12303;DHT22;6214;48.012;7.862;2022-07-21T00:39:45;23.70;99.90
12303;DHT22;6214;48.012;7.862;2022-07-21T00:42:26;23.60;99.90
12303;DHT22;6214;48.012;7.862;2022-07-21T00:44:54;23.50;99.90
12303;DHT22;6214;48.012;7.862;2022-07-21T00:47:22;23.60;99.90
12303;DHT22;6214;48.012;7.862;2022-07-21T00:49:49;23.60;99.90
12303;DHT22;6214;48.012;7.862;2022-07-21T00:52:17;23.60;99.90
12303;DHT22;6214;48.012;7.862;2022-07-21T00:54:44;23.60;99.90
12303;DHT22;6214;48.012;7.862;2022-07-21T00:57:11;23.50;99.90
12303;DHT22;6214;48.012;7.862;2022-07-21T00:59:40;23.50;99.90
12303;DHT22;6214;48.012;7.862;2022-07-21T01:02:07;23.50;99.90
12303;DHT22;6214;48.012;7.862;2022-07-21T01:04:34;23.50;99.90
12303;DHT22;6214;48.012;7.862;2022-07-21T01:07:03;23.40;99.90
12303;DHT22;6214;48.012;7.862;2022-07-21T01:09:32;23.40;99.90
12303;DHT22;6214;48.012;7.862;2022-07-21T01:11:59;23.30;99.90
12303;DHT22;6214;48.012;7.862;2022-07-21T01:14:26;23.30;99.90
12303;DHT22;6214;48.012;7.862;2022-07-21T01:16:53;23.30;99.90
12303;DHT22;6214;48.012;7.862;2022-07-21T01:19:20;23.40;99.90
12303;DHT22;6214;48.012;7.862;2022-07-21T01:21:48;23.40;99.90
12303;DHT22;6214;48.012;7.862;2022-07-21T01:24:15;23.30;99.90
12303;DHT22;6214;48.012;7.862;2022-07-21T01:26:47;23.40;99.90
12303;DHT22;6214;48.012;7.862;2022-07-21T01:29:15;23.40;99.90
12303;DHT22;6214;48.012;7.862;2022-07-21T01:31:44;23.40;99.90
12303;DHT22;6214;48.012;7.862;2022-07-21T01:34:11;23.20;99.90
12303;DHT22;6214;48.012;7.862;2022-07-21T01:36:39;23.10;99.90
12303;DHT22;6214;48.012;7.862;2022-07-21T01:39:06;23.00;99.90
12303;DHT22;6214;48.012;7.862;2022-07-21T01:41:52;23.10;99.90
12303;DHT22;6214;48.012;7.862;2022-07-21T01:44:19;23.10;99.90
12303;DHT22;6214;48.012;7.862;2022-07-21T01:46:49;23.00;99.90
12303;DHT22;6214;48.012;7.862;2022-07-21T01:49:17;23.00;99.90
12303;DHT22;6214;48.012;7.862;2022-07-21T01:51:44;23.10;99.90
12303;DHT22;6214;48.012;7.862;2022-07-21T01:54:11;23.00;99.90
12303;DHT22;6214;48.012;7.862;2022-07-21T01:56:39;22.90;99.90
12303;DHT22;6214;48.012;7.862;2022-07-21T01:59:06;22.90;99.90
12303;DHT22;6214;48.012;7.862;2022-07-21T02:01:34;22.90;99.90
12303;DHT22;6214;48.012;7.862;2022-07-21T02:04:03;22.80;99.90
12303;DHT22;6214;48.012;7.862;2022-07-21T02:06:31;22.80;99.90
12303;DHT22;6214;48.012;7.862;2022-07-21T02:08:59;22.90;99.90
12303;DHT22;6214;48.012;7.862;2022-07-21T02:11:26;22.90;99.90
12303;DHT22;6214;48.012;7.862;2022-07-21T02:13:54;22.70;99.90
12303;DHT22;6214;48.012;7.862;2022-07-21T02:16:21;22.70;99.90
12303;DHT22;6214;48.012;7.862;2022-07-21T02:18:48;22.70;99.90
12303;DHT22;6214;48.012;7.862;2022-07-21T02:21:16;22.80;99.90
12303;DHT22;6214;48.012;7.862;2022-07-21T02:23:43;22.90;99.90
12303;DHT22;6214;48.012;7.862;2022-07-21T02:26:10;22.70;99.90
12303;DHT22;6214;48.012;7.862;2022-07-21T02:28:37;22.70;99.90
12303;DHT22;6214;48.012;7.862;2022-07-21T02:31:05;22.60;99.90
12303;DHT22;6214;48.012;7.862;2022-07-21T02:33:32;22.60;99.90
12303;DHT22;6214;48.012;7.862;2022-07-21T02:35:59;22.50;99.90
12303;DHT22;6214;48.012;7.862;2022-07-21T02:38:27;22.60;99.90
12303;DHT22;6214;48.012;7.862;2022-07-21T02:40:54;22.60;99.90
12303;DHT22;6214;48.012;7.862;2022-07-21T02:43:23;22.60;99.90
12303;DHT22;6214;48.012;7.862;2022-07-21T02:45:50;22.60;99.90
12303;DHT22;6214;48.012;7.862;2022-07-21T02:48:18;22.60;99.90
12303;DHT22;6214;48.012;7.862;2022-07-21T02:50:45;22.60;99.90
12303;DHT22;6214;48.012;7.862;2022-07-21T02:53:14;22.70;99.90
12303;DHT22;6214;48.012;7.862;2022-07-21T02:55:45;22.90;99.90
12303;DHT22;6214;48.012;7.862;2022-07-21T02:58:20;22.90;99.90
12303;DHT22;6214;48.012;7.862;2022-07-21T03:01:03;22.90;99.90
12303;DHT22;6214;48.012;7.862;2022-07-21T03:03:33;22.90;99.90
12303;DHT22;6214;48.012;7.862;2022-07-21T03:06:01;22.90;99.90
12303;DHT22;6214;48.012;7.862;2022-07-21T03:08:28;22.80;99.90
12303;DHT22;6214;48.012;7.862;2022-07-21T03:10:55;22.60;99.90
12303;DHT22;6214;48.012;7.862;2022-07-21T03:13:23;22.80;99.90
12303;DHT22;6214;48.012;7.862;2022-07-21T03:15:50;22.60;99.90
12303;DHT22;6214;48.012;7.862;2022-07-21T03:18:17;22.70;99.90
12303;DHT22;6214;48.012;7.862;2022-07-21T03:20:44;22.70;99.90
12303;DHT22;6214;48.012;7.862;2022-07-21T03:23:12;22.60;99.90
12303;DHT22;6214;48.012;7.862;2022-07-21T03:25:39;22.60;99.90
12303;DHT22;6214;48.012;7.862;2022-07-21T03:28:06;22.60;99.90
12303;DHT22;6214;48.012;7.862;2022-07-21T03:30:34;22.60;99.90
12303;DHT22;6214;48.012;7.862;2022-07-21T03:33:01;22.50;99.90
12303;DHT22;6214;48.012;7.862;2022-07-21T03:35:28;22.40;99.90
12303;DHT22;6214;48.012;7.862;2022-07-21T03:38:00;22.40;99.90
12303;DHT22;6214;48.012;7.862;2022-07-21T03:40:32;22.30;99.90
12303;DHT22;6214;48.012;7.862;2022-07-21T03:43:00;22.20;99.90
12303;DHT22;6214;48.012;7.862;2022-07-21T03:45:29;22.20;99.90
12303;DHT22;6214;48.012;7.862;2022-07-21T03:47:58;22.20;99.90
12303;DHT22;6214;48.012;7.862;2022-07-21T03:50:26;22.10;99.90
12303;DHT22;6214;48.012;7.862;2022-07-21T03:52:53;22.10;99.90
12303;DHT22;6214;48.012;7.862;2022-07-21T03:55:21;22.00;99.90
12303;DHT22;6214;48.012;7.862;2022-07-21T03:57:57;22.10;99.90
12303;DHT22;6214;48.012;7.862;2022-07-21T04:00:30;22.10;99.90
12303;DHT22;6214;48.012;7.862;2022-07-21T04:02:58;22.40;99.90
12303;DHT22;6214;48.012;7.862;2022-07-21T04:05:25;22.40;99.90
12303;DHT22;6214;48.012;7.862;2022-07-21T04:07:53;22.40;99.90
12303;DHT22;6214;48.012;7.862;2022-07-21T04:10:24;22.40;99.90
12303;DHT22;6214;48.012;7.862;2022-07-21T04:12:51;22.40;99.90
12303;DHT22;6214;48.012;7.862;2022-07-21T04:15:19;22.20;99.90
12303;DHT22;6214;48.012;7.862;2022-07-21T04:17:47;22.30;99.90
12303;DHT22;6214;48.012;7.862;2022-07-21T04:20:15;22.20;99.90
12303;DHT22;6214;48.012;7.862;2022-07-21T04:22:43;22.30;99.90
12303;DHT22;6214;48.012;7.862;2022-07-21T04:25:11;22.20;99.90
12303;DHT22;6214;48.012;7.862;2022-07-21T04:27:39;22.10;99.90
12303;DHT22;6214;48.012;7.862;2022-07-21T04:30:09;22.10;99.90
12303;DHT22;6214;48.012;7.862;2022-07-21T04:32:36;22.10;99.90
12303;DHT22;6214;48.012;7.862;2022-07-21T04:35:07;22.10;99.90
12303;DHT22;6214;48.012;7.862;2022-07-21T04:37:35;22.20;99.90
12303;DHT22;6214;48.012;7.862;2022-07-21T04:40:04;22.40;99.90
12303;DHT22;6214;48.012;7.862;2022-07-21T04:42:32;22.50;99.90
12303;DHT22;6214;48.012;7.862;2022-07-21T04:44:59;22.50;99.90
12303;DHT22;6214;48.012;7.862;2022-07-21T04:47:26;22.40;99.90
12303;DHT22;6214;48.012;7.862;2022-07-21T04:49:53;22.30;99.90
12303;DHT22;6214;48.012;7.862;2022-07-21T04:52:20;22.30;99.90
12303;DHT22;6214;48.012;7.862;2022-07-21T04:54:47;22.50;99.90
12303;DHT22;6214;48.012;7.862;2022-07-21T04:57:14;21.70;99.90
12303;DHT22;6214;48.012;7.862;2022-07-21T04:59:41;22.60;99.90
12303;DHT22;6214;48.012;7.862;2022-07-21T05:02:08;22.50;99.90
12303;DHT22;6214;48.012;7.862;2022-07-21T05:04:35;22.50;99.90
12303;DHT22;6214;48.012;7.862;2022-07-21T05:07:02;22.50;99.90
12303;DHT22;6214;48.012;7.862;2022-07-21T05:09:29;22.50;99.90
12303;DHT22;6214;48.012;7.862;2022-07-21T05:11:55;22.50;99.90
12303;DHT22;6214;48.012;7.862;2022-07-21T05:14:22;22.50;99.90
12303;DHT22;6214;48.012;7.862;2022-07-21T05:16:49;22.50;99.90
12303;DHT22;6214;48.012;7.862;2022-07-21T05:19:16;22.50;99.90
12303;DHT22;6214;48.012;7.862;2022-07-21T05:21:43;22.50;99.90
12303;DHT22;6214;48.012;7.862;2022-07-21T05:24:12;22.50;99.90
12303;DHT22;6214;48.012;7.862;2022-07-21T05:26:38;22.60;99.90
12303;DHT22;6214;48.012;7.862;2022-07-21T05:29:05;22.70;99.90
12303;DHT22;6214;48.012;7.862;2022-07-21T05:31:32;23.00;99.90
12303;DHT22;6214;48.012;7.862;2022-07-21T05:33:59;23.10;99.90
12303;DHT22;6214;48.012;7.862;2022-07-21T05:36:26;23.30;99.90
12303;DHT22;6214;48.012;7.862;2022-07-21T05:38:53;23.30;99.90
12303;DHT22;6214;48.012;7.862;2022-07-21T05:41:20;23.40;99.90
12303;DHT22;6214;48.012;7.862;2022-07-21T05:43:48;23.60;99.90
12303;DHT22;6214;48.012;7.862;2022-07-21T05:46:15;23.60;99.90
12303;DHT22;6214;48.012;7.862;2022-07-21T05:48:42;23.70;99.90
12303;DHT22;6214;48.012;7.862;2022-07-21T05:51:09;23.80;99.90
12303;DHT22;6214;48.012;7.862;2022-07-21T05:53:44;23.90;99.90
12303;DHT22;6214;48.012;7.862;2022-07-21T05:56:11;23.90;99.90
12303;DHT22;6214;48.012;7.862;2022-07-21T05:58:38;24.10;99.90
12303;DHT22;6214;48.012;7.862;2022-07-21T06:01:05;24.20;99.90
12303;DHT22;6214;48.012;7.862;2022-07-21T06:06:10;24.40;99.90
12303;DHT22;6214;48.012;7.862;2022-07-21T06:08:38;24.50;99.90
12303;DHT22;6214;48.012;7.862;2022-07-21T06:11:06;24.70;99.90
12303;DHT22;6214;48.012;7.862;2022-07-21T06:13:34;24.70;99.90
12303;DHT22;6214;48.012;7.862;2022-07-21T06:16:02;24.90;99.90
12303;DHT22;6214;48.012;7.862;2022-07-21T06:18:29;25.20;99.90
12303;DHT22;6214;48.012;7.862;2022-07-21T06:20:56;25.30;99.90
12303;DHT22;6214;48.012;7.862;2022-07-21T06:23:23;25.30;99.90
12303;DHT22;6214;48.012;7.862;2022-07-21T06:25:51;25.50;99.90
12303;DHT22;6214;48.012;7.862;2022-07-21T06:28:19;25.50;99.90
12303;DHT22;6214;48.012;7.862;2022-07-21T06:30:46;25.60;99.90
12303;DHT22;6214;48.012;7.862;2022-07-21T06:33:13;25.90;99.90
12303;DHT22;6214;48.012;7.862;2022-07-21T06:35:40;26.20;99.90
12303;DHT22;6214;48.012;7.862;2022-07-21T06:38:07;26.50;99.90
12303;DHT22;6214;48.012;7.862;2022-07-21T06:40:39;26.70;99.90
12303;DHT22;6214;48.012;7.862;2022-07-21T06:43:09;27.00;99.90
12303;DHT22;6214;48.012;7.862;2022-07-21T06:45:56;27.20;99.90
12303;DHT22;6214;48.012;7.862;2022-07-21T06:48:24;27.50;99.90
12303;DHT22;6214;48.012;7.862;2022-07-21T06:50:52;27.60;99.90
12303;DHT22;6214;48.012;7.862;2022-07-21T06:53:20;27.20;99.90
12303;DHT22;6214;48.012;7.862;2022-07-21T06:55:47;26.80;99.90
12303;DHT22;6214;48.012;7.862;2022-07-21T06:58:28;26.40;99.90
12303;DHT22;6214;48.012;7.862;2022-07-21T07:00:57;26.30;99.90
12303;DHT22;6214;48.012;7.862;2022-07-21T07:03:25;26.00;99.90
12303;DHT22;6214;48.012;7.862;2022-07-21T07:05:52;25.70;99.90
12303;DHT22;6214;48.012;7.862;2022-07-21T07:08:19;25.50;99.90
12303;DHT22;6214;48.012;7.862;2022-07-21T07:10:46;26.10;99.90
12303;DHT22;6214;48.012;7.862;2022-07-21T07:13:13;26.60;99.90
12303;DHT22;6214;48.012;7.862;2022-07-21T07:16:01;26.50;99.90
12303;DHT22;6214;48.012;7.862;2022-07-21T07:18:29;26.30;99.90
12303;DHT22;6214;48.012;7.862;2022-07-21T07:20:56;28.20;99.90
12303;DHT22;6214;48.012;7.862;2022-07-21T07:23:22;29.40;99.90
12303;DHT22;6214;48.012;7.862;2022-07-21T07:25:49;29.50;99.90
12303;DHT22;6214;48.012;7.862;2022-07-21T07:28:16;29.50;99.90
12303;DHT22;6214;48.012;7.862;2022-07-21T07:30:43;29.10;99.90
12303;DHT22;6214;48.012;7.862;2022-07-21T07:33:10;31.50;99.90
12303;DHT22;6214;48.012;7.862;2022-07-21T07:35:37;30.60;99.90
12303;DHT22;6214;48.012;7.862;2022-07-21T07:38:04;29.60;99.90
12303;DHT22;6214;48.012;7.862;2022-07-21T07:40:31;28.80;99.90
12303;DHT22;6214;48.012;7.862;2022-07-21T07:42:58;28.40;99.90
12303;DHT22;6214;48.012;7.862;2022-07-21T07:45:37;27.80;99.90
12303;DHT22;6214;48.012;7.862;2022-07-21T07:48:04;27.10;99.90
12303;DHT22;6214;48.012;7.862;2022-07-21T07:50:31;26.60;99.90
12303;DHT22;6214;48.012;7.862;2022-07-21T07:52:58;26.30;99.90
12303;DHT22;6214;48.012;7.862;2022-07-21T07:55:25;26.10;99.90
12303;DHT22;6214;48.012;7.862;2022-07-21T07:57:52;26.00;99.90
12303;DHT22;6214;48.012;7.862;2022-07-21T08:00:19;26.30;99.90
12303;DHT22;6214;48.012;7.862;2022-07-21T08:03:07;26.90;99.90
12303;DHT22;6214;48.012;7.862;2022-07-21T08:05:34;27.50;99.90
12303;DHT22;6214;48.012;7.862;2022-07-21T08:08:01;27.70;99.90
12303;DHT22;6214;48.012;7.862;2022-07-21T08:10:28;27.90;99.90
12303;DHT22;6214;48.012;7.862;2022-07-21T08:13:07;27.80;99.90
12303;DHT22;6214;48.012;7.862;2022-07-21T08:15:36;27.50;99.90
12303;DHT22;6214;48.012;7.862;2022-07-21T08:18:04;27.30;99.90
12303;DHT22;6214;48.012;7.862;2022-07-21T08:20:31;27.10;99.90
12303;DHT22;6214;48.012;7.862;2022-07-21T08:23:16;27.00;99.90
12303;DHT22;6214;48.012;7.862;2022-07-21T08:26:02;27.30;99.90
12303;DHT22;6214;48.012;7.862;2022-07-21T08:28:29;27.60;99.90
12303;DHT22;6214;48.012;7.862;2022-07-21T08:30:55;27.70;99.90
12303;DHT22;6214;48.012;7.862;2022-07-21T08:33:22;28.00;99.90
12303;DHT22;6214;48.012;7.862;2022-07-21T08:35:49;28.10;99.90
12303;DHT22;6214;48.012;7.862;2022-07-21T08:38:16;28.20;99.90
12303;DHT22;6214;48.012;7.862;2022-07-21T08:40:45;28.00;99.90
12303;DHT22;6214;48.012;7.862;2022-07-21T08:43:13;27.60;99.90
12303;DHT22;6214;48.012;7.862;2022-07-21T08:45:41;27.60;99.90
12303;DHT22;6214;48.012;7.862;2022-07-21T08:48:09;27.80;99.90
12303;DHT22;6214;48.012;7.862;2022-07-21T08:50:40;27.20;99.90
12303;DHT22;6214;48.012;7.862;2022-07-21T08:53:07;28.10;99.90
12303;DHT22;6214;48.012;7.862;2022-07-21T08:55:36;28.30;99.90
12303;DHT22;6214;48.012;7.862;2022-07-21T08:58:03;28.50;99.90
12303;DHT22;6214;48.012;7.862;2022-07-21T09:00:34;28.60;99.90
12303;DHT22;6214;48.012;7.862;2022-07-21T09:03:27;28.70;99.90
12303;DHT22;6214;48.012;7.862;2022-07-21T09:06:11;28.50;99.90
12303;DHT22;6214;48.012;7.862;2022-07-21T09:08:51;28.50;99.90
12303;DHT22;6214;48.012;7.862;2022-07-21T09:11:19;28.10;99.90
12303;DHT22;6214;48.012;7.862;2022-07-21T09:14:11;27.70;99.90
12303;DHT22;6214;48.012;7.862;2022-07-21T09:16:46;27.60;99.90
12303;DHT22;6214;48.012;7.862;2022-07-21T09:19:30;28.10;99.90
12303;DHT22;6214;48.012;7.862;2022-07-21T09:22:05;28.50;99.90
12303;DHT22;6214;48.012;7.862;2022-07-21T09:24:33;28.60;99.90
12303;DHT22;6214;48.012;7.862;2022-07-21T09:29:50;28.30;99.90
12303;DHT22;6214;48.012;7.862;2022-07-21T09:32:24;28.30;99.90
12303;DHT22;6214;48.012;7.862;2022-07-21T09:34:55;28.60;99.90
12303;DHT22;6214;48.012;7.862;2022-07-21T09:37:32;28.80;99.90
12303;DHT22;6214;48.012;7.862;2022-07-21T09:40:05;28.90;99.90
12303;DHT22;6214;48.012;7.862;2022-07-21T09:42:38;29.00;99.90
12303;DHT22;6214;48.012;7.862;2022-07-21T09:45:10;28.70;99.90
12303;DHT22;6214;48.012;7.862;2022-07-21T09:47:39;28.40;99.90
12303;DHT22;6214;48.012;7.862;2022-07-21T09:50:09;27.90;99.90
12303;DHT22;6214;48.012;7.862;2022-07-21T09:52:56;27.80;99.90
12303;DHT22;6214;48.012;7.862;2022-07-21T09:55:24;28.10;99.90
12303;DHT22;6214;48.012;7.862;2022-07-21T09:57:51;28.40;99.90
12303;DHT22;6214;48.012;7.862;2022-07-21T10:00:19;28.10;99.90
12303;DHT22;6214;48.012;7.862;2022-07-21T10:02:48;27.70;99.90
12303;DHT22;6214;48.012;7.862;2022-07-21T10:05:20;27.60;99.90
12303;DHT22;6214;48.012;7.862;2022-07-21T10:07:57;27.90;99.90
12303;DHT22;6214;48.012;7.862;2022-07-21T10:10:25;28.30;99.90
12303;DHT22;6214;48.012;7.862;2022-07-21T10:13:12;28.60;99.90
12303;DHT22;6214;48.012;7.862;2022-07-21T10:15:40;28.70;99.90
12303;DHT22;6214;48.012;7.862;2022-07-21T10:18:10;28.40;99.90
12303;DHT22;6214;48.012;7.862;2022-07-21T10:20:42;28.10;99.90
12303;DHT22;6214;48.012;7.862;2022-07-21T10:23:22;28.00;99.90
12303;DHT22;6214;48.012;7.862;2022-07-21T10:25:54;28.00;99.90
12303;DHT22;6214;48.012;7.862;2022-07-21T10:28:22;28.20;99.90
12303;DHT22;6214;48.012;7.862;2022-07-21T10:30:52;28.70;99.90
12303;DHT22;6214;48.012;7.862;2022-07-21T10:41:38;29.60;99.90
12303;DHT22;6214;48.012;7.862;2022-07-21T10:47:12;29.50;99.90
12303;DHT22;6214;48.012;7.862;2022-07-21T10:49:52;29.70;99.90
12303;DHT22;6214;48.012;7.862;2022-07-21T10:57:39;30.00;99.90
12303;DHT22;6214;48.012;7.862;2022-07-21T11:02:55;29.10;99.90
12303;DHT22;6214;48.012;7.862;2022-07-21T11:05:24;28.90;99.90
12303;DHT22;6214;48.012;7.862;2022-07-21T11:10:40;28.90;99.90
12303;DHT22;6214;48.012;7.862;2022-07-21T11:13:07;29.10;99.90
12303;DHT22;6214;48.012;7.862;2022-07-21T11:15:56;29.10;99.90
12303;DHT22;6214;48.012;7.862;2022-07-21T11:18:29;29.00;99.90
12303;DHT22;6214;48.012;7.862;2022-07-21T11:21:03;28.80;99.90
12303;DHT22;6214;48.012;7.862;2022-07-21T11:23:42;28.70;99.90
12303;DHT22;6214;48.012;7.862;2022-07-21T11:26:10;28.60;99.90
12303;DHT22;6214;48.012;7.862;2022-07-21T11:28:38;28.40;99.90
12303;DHT22;6214;48.012;7.862;2022-07-21T11:31:11;28.40;99.90
12303;DHT22;6214;48.012;7.862;2022-07-21T11:33:39;28.60;99.90
12303;DHT22;6214;48.012;7.862;2022-07-21T11:36:07;28.70;99.90
12303;DHT22;6214;48.012;7.862;2022-07-21T11:38:59;28.90;99.90
12303;DHT22;6214;48.012;7.862;2022-07-21T11:41:27;29.00;99.90
12303;DHT22;6214;48.012;7.862;2022-07-21T11:43:54;28.60;99.90
12303;DHT22;6214;48.012;7.862;2022-07-21T11:46:21;28.60;99.90
12303;DHT22;6214;48.012;7.862;2022-07-21T11:48:59;28.50;99.90
12303;DHT22;6214;48.012;7.862;2022-07-21T11:51:26;28.60;99.90
12303;DHT22;6214;48.012;7.862;2022-07-21T11:53:53;28.60;99.90
12303;DHT22;6214;48.012;7.862;2022-07-21T11:56:21;28.80;99.90
12303;DHT22;6214;48.012;7.862;2022-07-21T11:58:48;28.60;99.90
12303;DHT22;6214;48.012;7.862;2022-07-21T12:01:15;28.60;99.90
12303;DHT22;6214;48.012;7.862;2022-07-21T12:03:51;28.80;99.90
12303;DHT22;6214;48.012;7.862;2022-07-21T12:06:20;29.00;99.90
12303;DHT22;6214;48.012;7.862;2022-07-21T12:08:47;29.30;99.90
12303;DHT22;6214;48.012;7.862;2022-07-21T12:11:14;29.70;99.90
12303;DHT22;6214;48.012;7.862;2022-07-21T12:13:55;29.90;99.90
12303;DHT22;6214;48.012;7.862;2022-07-21T12:16:49;29.80;99.90
12303;DHT22;6214;48.012;7.862;2022-07-21T12:19:18;30.00;99.90
12303;DHT22;6214;48.012;7.862;2022-07-21T12:21:50;30.20;99.90
12303;DHT22;6214;48.012;7.862;2022-07-21T12:24:19;30.20;99.90
12303;DHT22;6214;48.012;7.862;2022-07-21T12:26:46;29.80;99.90
12303;DHT22;6214;48.012;7.862;2022-07-21T12:29:27;29.60;99.90
12303;DHT22;6214;48.012;7.862;2022-07-21T12:31:55;29.50;99.90
12303;DHT22;6214;48.012;7.862;2022-07-21T12:34:22;29.60;99.90
12303;DHT22;6214;48.012;7.862;2022-07-21T12:36:53;29.60;99.90
12303;DHT22;6214;48.012;7.862;2022-07-21T12:39:21;29.90;99.90
12303;DHT22;6214;48.012;7.862;2022-07-21T12:42:10;30.10;99.90
12303;DHT22;6214;48.012;7.862;2022-07-21T12:44:38;30.30;99.90
12303;DHT22;6214;48.012;7.862;2022-07-21T12:47:33;30.40;99.90
12303;DHT22;6214;48.012;7.862;2022-07-21T12:50:01;30.30;99.90
12303;DHT22;6214;48.012;7.862;2022-07-21T12:52:46;30.50;99.90
12303;DHT22;6214;48.012;7.862;2022-07-21T12:55:13;30.70;99.90
12303;DHT22;6214;48.012;7.862;2022-07-21T12:57:40;30.70;99.90
12303;DHT22;6214;48.012;7.862;2022-07-21T13:00:07;30.80;99.90
12303;DHT22;6214;48.012;7.862;2022-07-21T13:02:48;30.90;99.60
12303;DHT22;6214;48.012;7.862;2022-07-21T13:05:17;30.90;99.70
12303;DHT22;6214;48.012;7.862;2022-07-21T13:07:44;30.90;98.70
12303;DHT22;6214;48.012;7.862;2022-07-21T13:10:11;31.00;98.30
12303;DHT22;6214;48.012;7.862;2022-07-21T13:12:38;31.00;98.80
12303;DHT22;6214;48.012;7.862;2022-07-21T13:15:05;30.90;99.30
12303;DHT22;6214;48.012;7.862;2022-07-21T13:17:32;31.00;99.60
12303;DHT22;6214;48.012;7.862;2022-07-21T13:19:59;31.00;99.70
12303;DHT22;6214;48.012;7.862;2022-07-21T13:22:33;30.90;99.60
12303;DHT22;6214;48.012;7.862;2022-07-21T13:25:00;30.90;99.70
12303;DHT22;6214;48.012;7.862;2022-07-21T13:27:27;31.00;99.90
12303;DHT22;6214;48.012;7.862;2022-07-21T13:29:53;31.10;99.90
12303;DHT22;6214;48.012;7.862;2022-07-21T13:32:20;31.10;99.90
12303;DHT22;6214;48.012;7.862;2022-07-21T13:34:47;31.00;99.80
12303;DHT22;6214;48.012;7.862;2022-07-21T13:37:34;30.80;99.30
12303;DHT22;6214;48.012;7.862;2022-07-21T13:40:02;30.70;99.90
12303;DHT22;6214;48.012;7.862;2022-07-21T13:42:49;30.70;99.50
12303;DHT22;6214;48.012;7.862;2022-07-21T13:45:36;30.70;99.60
12303;DHT22;6214;48.012;7.862;2022-07-21T13:48:04;30.70;99.90
12303;DHT22;6214;48.012;7.862;2022-07-21T13:50:31;30.70;99.20
12303;DHT22;6214;48.012;7.862;2022-07-21T13:52:57;30.80;99.50
12303;DHT22;6214;48.012;7.862;2022-07-21T13:55:24;30.90;99.30
12303;DHT22;6214;48.012;7.862;2022-07-21T13:57:51;30.80;99.10
12303;DHT22;6214;48.012;7.862;2022-07-21T14:00:18;30.70;98.40
12303;DHT22;6214;48.012;7.862;2022-07-21T14:02:45;30.60;98.00
12303;DHT22;6214;48.012;7.862;2022-07-21T14:05:13;30.50;98.60
12303;DHT22;6214;48.012;7.862;2022-07-21T14:07:40;30.40;98.10
12303;DHT22;6214;48.012;7.862;2022-07-21T14:10:08;30.50;98.60
12303;DHT22;6214;48.012;7.862;2022-07-21T14:12:35;30.50;98.40
12303;DHT22;6214;48.012;7.862;2022-07-21T14:15:08;30.60;98.50
12303;DHT22;6214;48.012;7.862;2022-07-21T14:17:35;30.60;98.80
12303;DHT22;6214;48.012;7.862;2022-07-21T14:20:03;30.40;98.40
12303;DHT22;6214;48.012;7.862;2022-07-21T14:22:30;30.30;98.10
12303;DHT22;6214;48.012;7.862;2022-07-21T14:24:57;30.40;98.80
12303;DHT22;6214;48.012;7.862;2022-07-21T14:27:44;30.40;98.90
12303;DHT22;6214;48.012;7.862;2022-07-21T14:30:14;30.60;99.30
12303;DHT22;6214;48.012;7.862;2022-07-21T14:32:42;30.50;98.10
12303;DHT22;6214;48.012;7.862;2022-07-21T14:35:09;30.50;97.90
12303;DHT22;6214;48.012;7.862;2022-07-21T14:37:36;30.50;98.10
12303;DHT22;6214;48.012;7.862;2022-07-21T14:40:04;30.40;98.80
12303;DHT22;6214;48.012;7.862;2022-07-21T14:42:32;30.60;99.00
12303;DHT22;6214;48.012;7.862;2022-07-21T14:44:58;30.70;98.80
12303;DHT22;6214;48.012;7.862;2022-07-21T14:47:26;30.80;98.80
12303;DHT22;6214;48.012;7.862;2022-07-21T14:49:53;30.70;98.30
12303;DHT22;6214;48.012;7.862;2022-07-21T14:52:20;30.70;99.20
12303;DHT22;6214;48.012;7.862;2022-07-21T14:54:46;30.60;99.40
12303;DHT22;6214;48.012;7.862;2022-07-21T14:57:13;30.50;99.60
12303;DHT22;6214;48.012;7.862;2022-07-21T14:59:40;30.60;99.90
12303;DHT22;6214;48.012;7.862;2022-07-21T15:02:08;30.70;99.60
12303;DHT22;6214;48.012;7.862;2022-07-21T15:04:41;30.70;99.60
12303;DHT22;6214;48.012;7.862;2022-07-21T15:07:08;30.70;99.60
12303;DHT22;6214;48.012;7.862;2022-07-21T15:09:35;30.50;99.50
12303;DHT22;6214;48.012;7.862;2022-07-21T15:12:02;30.40;99.90
12303;DHT22;6214;48.012;7.862;2022-07-21T15:14:29;30.40;99.90
12303;DHT22;6214;48.012;7.862;2022-07-21T15:16:56;30.40;99.90
12303;DHT22;6214;48.012;7.862;2022-07-21T15:19:23;30.50;99.90
12303;DHT22;6214;48.012;7.862;2022-07-21T15:21:49;30.50;99.90
12303;DHT22;6214;48.012;7.862;2022-07-21T15:24:16;30.50;99.90
12303;DHT22;6214;48.012;7.862;2022-07-21T15:26:43;30.20;99.90
12303;DHT22;6214;48.012;7.862;2022-07-21T15:29:10;30.00;99.90
12303;DHT22;6214;48.012;7.862;2022-07-21T15:31:37;30.10;99.90
12303;DHT22;6214;48.012;7.862;2022-07-21T15:34:05;30.10;99.90
12303;DHT22;6214;48.012;7.862;2022-07-21T15:36:32;30.20;99.90
12303;DHT22;6214;48.012;7.862;2022-07-21T15:38:59;30.20;99.90
12303;DHT22;6214;48.012;7.862;2022-07-21T15:41:27;30.30;99.90
12303;DHT22;6214;48.012;7.862;2022-07-21T15:44:14;30.20;99.90
12303;DHT22;6214;48.012;7.862;2022-07-21T15:46:40;30.30;99.90
12303;DHT22;6214;48.012;7.862;2022-07-21T15:49:09;30.30;99.90
12303;DHT22;6214;48.012;7.862;2022-07-21T15:51:36;30.40;99.90
12303;DHT22;6214;48.012;7.862;2022-07-21T15:54:03;30.30;99.90
12303;DHT22;6214;48.012;7.862;2022-07-21T15:56:30;30.30;99.90
12303;DHT22;6214;48.012;7.862;2022-07-21T15:58:57;30.20;99.90
12303;DHT22;6214;48.012;7.862;2022-07-21T16:01:42;30.20;99.60
12303;DHT22;6214;48.012;7.862;2022-07-21T16:04:09;30.10;99.40
12303;DHT22;6214;48.012;7.862;2022-07-21T16:06:36;30.30;99.90
12303;DHT22;6214;48.012;7.862;2022-07-21T16:09:03;30.30;99.30
12303;DHT22;6214;48.012;7.862;2022-07-21T16:11:31;30.30;98.80
12303;DHT22;6214;48.012;7.862;2022-07-21T16:13:58;30.30;99.10
12303;DHT22;6214;48.012;7.862;2022-07-21T16:16:25;30.30;99.60
12303;DHT22;6214;48.012;7.862;2022-07-21T16:18:52;30.30;99.70
12303;DHT22;6214;48.012;7.862;2022-07-21T16:21:18;30.30;98.90
12303;DHT22;6214;48.012;7.862;2022-07-21T16:23:45;30.20;99.20
12303;DHT22;6214;48.012;7.862;2022-07-21T16:26:12;30.20;99.60